Terminal Aerodrome Forecast
Issued by NWS

Home | Current Version | Previous Version | Text Only | Print | Product List | Glossary On
Versions: 1 2 3 4 5 6 7 8 9 10 11 12 13 14 15 16 17 18 19
000
FTUS43 KIWX 280500 AAA
TAFSBN
TAF AMD
KSBN 280533Z 2806/2906 VRB02KT 5SM BR SKC
      TEMPO 2806/2810 1 1/2SM BR
     FM281300 15008KT P6SM FEW050=

USA.gov is the U.S. government's official web portal to all federal, state and local government web resources and services.